createdAt,value
2019-02-22T00:00:33.301Z,10.23
2019-02-22T00:01:13.875Z,10.19
2019-02-22T00:01:54.443Z,10.22
2019-02-22T00:02:35.056Z,10.23
2019-02-22T00:03:15.635Z,10.23
2019-02-22T00:03:56.209Z,10.17
2019-02-22T00:04:36.782Z,10.23
2019-02-22T00:05:17.350Z,10.19
2019-02-22T00:05:57.920Z,10.22
2019-02-22T00:06:38.515Z,10.17
2019-02-22T00:07:19.119Z,10.28
2019-02-22T00:07:59.703Z,10.17
2019-02-22T00:08:40.266Z,10.15
2019-02-22T00:09:20.863Z,10.17
2019-02-22T00:10:01.414Z,10.17
2019-02-22T00:10:42.021Z,10.28
2019-02-22T00:11:22.569Z,10.17
2019-02-22T00:12:03.167Z,10.28
2019-02-22T00:12:43.809Z,10.26
2019-02-22T00:13:24.380Z,10.26
2019-02-22T00:14:04.935Z,10.17
2019-02-22T00:14:45.492Z,10.23
2019-02-22T00:15:26.064Z,10.19
2019-02-22T00:16:06.617Z,10.28
2019-02-22T00:16:47.247Z,10.22
2019-02-22T00:17:27.801Z,10.17
2019-02-22T00:18:08.392Z,10.23
2019-02-22T00:18:48.978Z,10.25
2019-02-22T00:19:29.535Z,10.25
2019-02-22T00:20:10.106Z,10.2
2019-02-22T00:20:50.647Z,10.23
2019-02-22T00:21:31.235Z,10.17
2019-02-22T00:22:11.878Z,10.2
2019-02-22T00:22:52.473Z,10.17
2019-02-22T00:23:33.061Z,10.19
2019-02-22T00:24:13.648Z,10.2
2019-02-22T00:24:54.215Z,10.2
2019-02-22T00:25:34.835Z,10.26
2019-02-22T00:26:15.401Z,10.2
2019-02-22T00:26:55.961Z,10.25
2019-02-22T00:27:36.584Z,10.31
2019-02-22T00:28:17.124Z,10.17
2019-02-22T00:28:57.735Z,10.17
2019-02-22T00:29:38.320Z,10.26
2019-02-22T00:30:21.475Z,10.22
2019-02-22T00:30:59.445Z,10.17
2019-02-22T00:31:40.036Z,10.23
2019-02-22T00:32:20.623Z,10.23
2019-02-22T00:33:01.196Z,10.28
2019-02-22T00:33:41.765Z,10.23
2019-02-22T00:34:22.362Z,10.3
2019-02-22T00:35:02.907Z,10.23
2019-02-22T00:35:43.522Z,10.3
2019-02-22T00:36:24.148Z,10.26
2019-02-22T00:37:04.772Z,10.28
2019-02-22T00:37:45.248Z,10.22
2019-02-22T00:38:27.109Z,10.15
2019-02-22T00:39:06.336Z,10.2
2019-02-22T00:39:46.891Z,10.17
2019-02-22T00:40:27.467Z,10.12
2019-02-22T00:41:08.059Z,10.17
2019-02-22T00:41:48.641Z,10.22
2019-02-22T00:42:29.205Z,10.12
2019-02-22T00:43:09.773Z,10.13
2019-02-22T00:43:50.331Z,10.22
2019-02-22T00:44:30.907Z,10.2
2019-02-22T00:45:11.483Z,10.22
2019-02-22T00:45:52.087Z,10.15
2019-02-22T00:46:32.689Z,10.16
2019-02-22T00:47:13.280Z,10.1
2019-02-22T00:47:53.859Z,10.09
2019-02-22T00:48:34.454Z,10.19
2019-02-22T00:49:15.047Z,10.13
2019-02-22T00:49:55.602Z,10.23
2019-02-22T00:50:36.218Z,10.25
2019-02-22T00:51:16.759Z,10.1
2019-02-22T00:51:57.352Z,10.16
2019-02-22T00:52:37.957Z,10.16
2019-02-22T00:53:18.517Z,10.19
2019-02-22T00:53:59.094Z,10.16
2019-02-22T00:54:39.704Z,10.22
2019-02-22T00:55:20.299Z,10.2
2019-02-22T00:56:00.856Z,10.09
2019-02-22T00:56:41.436Z,10.12
2019-02-22T00:57:22.006Z,10.15
2019-02-22T00:58:02.598Z,10.17
2019-02-22T00:58:43.168Z,10.09
2019-02-22T00:59:23.758Z,10.16
2019-02-22T01:00:04.314Z,10.2
2019-02-22T01:00:44.916Z,10.22
2019-02-22T01:01:25.506Z,10.2
2019-02-22T01:02:06.113Z,10.19
2019-02-22T01:02:46.695Z,10.15
2019-02-22T01:03:27.316Z,10.19
2019-02-22T01:04:07.877Z,10.15
2019-02-22T01:04:48.442Z,10.15
2019-02-22T01:05:29.023Z,10.16
2019-02-22T01:06:09.589Z,10.17
2019-02-22T01:06:50.189Z,10.25
2019-02-22T01:07:30.733Z,10.16
2019-02-22T01:08:11.273Z,10.15
2019-02-22T01:08:51.882Z,10.1
2019-02-22T01:09:32.467Z,10.12
2019-02-22T01:10:13.065Z,10.09
2019-02-22T01:10:53.685Z,10.1
2019-02-22T01:11:34.315Z,10.07
2019-02-22T01:12:14.931Z,10.1
2019-02-22T01:12:55.527Z,10.1
2019-02-22T01:13:36.092Z,10.12
2019-02-22T01:14:16.647Z,10.1
2019-02-22T01:14:57.240Z,10.05
2019-02-22T01:15:37.811Z,10.02
2019-02-22T01:16:18.405Z,10.02
2019-02-22T01:16:58.956Z,10.04
2019-02-22T01:17:39.608Z,9.99
2019-02-22T01:18:20.213Z,10.05
2019-02-22T01:19:00.843Z,10.04
2019-02-22T01:19:41.387Z,10.01
2019-02-22T01:20:21.994Z,10.07
2019-02-22T01:21:02.570Z,10.05
2019-02-22T01:21:43.183Z,10.05
2019-02-22T01:22:23.737Z,10.04
2019-02-22T01:23:04.302Z,10.1
2019-02-22T01:23:44.922Z,10.09
2019-02-22T01:24:25.489Z,10.09
2019-02-22T01:25:06.123Z,10.07
2019-02-22T01:25:46.727Z,10.05
2019-02-22T01:26:27.298Z,10.12
2019-02-22T01:27:07.840Z,10.09
2019-02-22T01:27:48.424Z,10.12
2019-02-22T01:28:29.077Z,10.07
2019-02-22T01:29:09.628Z,10.1
2019-02-22T01:29:50.255Z,10.1
2019-02-22T01:30:30.859Z,10.12
2019-02-22T01:31:11.438Z,10.09
2019-02-22T01:31:51.966Z,10.13
2019-02-22T01:32:32.545Z,10.09
2019-02-22T01:33:13.087Z,10.09
2019-02-22T01:33:54.263Z,10.07
2019-02-22T01:34:34.357Z,10.07
2019-02-22T01:35:14.972Z,10.15
2019-02-22T01:35:55.559Z,10.07
2019-02-22T01:36:36.144Z,10.17
2019-02-22T01:37:16.728Z,10.1
2019-02-22T01:37:57.333Z,10.07
2019-02-22T01:38:37.951Z,10.1
2019-02-22T01:39:18.578Z,10.07
2019-02-22T01:39:59.139Z,10.12
2019-02-22T01:40:43.360Z,10.09
2019-02-22T01:41:20.330Z,10.09
2019-02-22T01:42:00.976Z,10.12
2019-02-22T01:42:41.590Z,10.12
2019-02-22T01:43:22.107Z,10.12
2019-02-22T01:44:02.684Z,10.09
2019-02-22T01:44:43.248Z,10.09
2019-02-22T01:45:23.817Z,10.09
2019-02-22T01:46:04.358Z,10.07
2019-02-22T01:46:44.974Z,9.99
2019-02-22T01:47:25.563Z,10.09
2019-02-22T01:48:06.144Z,10.05
2019-02-22T01:48:46.729Z,10.1
2019-02-22T01:49:27.300Z,10.09
2019-02-22T01:50:07.868Z,10.05
2019-02-22T01:50:48.410Z,10.15
2019-02-22T01:51:28.979Z,10.13
2019-02-22T01:52:09.555Z,10.07
2019-02-22T01:52:50.128Z,10.1
2019-02-22T01:53:30.719Z,10.12
2019-02-22T01:54:11.295Z,10.1
2019-02-22T01:54:51.855Z,10.07
2019-02-22T01:55:32.433Z,10.07
2019-02-22T01:56:13.003Z,10.1
2019-02-22T01:56:53.566Z,10.07
2019-02-22T01:57:34.105Z,10.09
2019-02-22T01:58:14.673Z,10.05
2019-02-22T01:58:55.222Z,9.99
2019-02-22T01:59:35.798Z,10.07
2019-02-22T02:00:16.402Z,10.09
2019-02-22T02:00:56.961Z,10.07
2019-02-22T02:01:37.522Z,10.05
2019-02-22T02:02:18.115Z,9.99
2019-02-22T02:02:58.711Z,10.04
2019-02-22T02:03:39.276Z,10.01
2019-02-22T02:04:19.860Z,9.98
2019-02-22T02:05:00.499Z,10.02
2019-02-22T02:05:41.008Z,10.02
2019-02-22T02:06:21.551Z,9.98
2019-02-22T02:07:02.111Z,10.09
2019-02-22T02:07:42.670Z,10.02
2019-02-22T02:08:23.234Z,10.07
2019-02-22T02:09:03.804Z,10.04
2019-02-22T02:09:44.378Z,10.05
2019-02-22T02:10:24.956Z,10.09
2019-02-22T02:11:05.548Z,10.04
2019-02-22T02:11:46.124Z,10.04
2019-02-22T02:12:26.696Z,10.07
2019-02-22T02:13:07.301Z,10.05
2019-02-22T02:13:47.887Z,10.01
2019-02-22T02:14:28.430Z,10.05
2019-02-22T02:15:08.986Z,10.01
2019-02-22T02:15:49.596Z,10.04
2019-02-22T02:16:30.136Z,10.04
2019-02-22T02:17:10.695Z,9.98
2019-02-22T02:17:51.263Z,9.98
2019-02-22T02:18:31.855Z,10.02
2019-02-22T02:19:12.617Z,10.04
2019-02-22T02:19:53.197Z,9.99
2019-02-22T02:20:33.780Z,10.05
2019-02-22T02:21:14.350Z,10.02
2019-02-22T02:21:54.911Z,10.04
2019-02-22T02:22:35.485Z,10.07
2019-02-22T02:23:16.050Z,10.07
2019-02-22T02:23:56.606Z,10.02
2019-02-22T02:24:37.169Z,10.07
2019-02-22T02:25:17.752Z,10.05
2019-02-22T02:25:58.312Z,10.05
2019-02-22T02:26:39.282Z,10.05
2019-02-22T02:27:19.889Z,9.97
2019-02-22T02:28:00.449Z,10.02
2019-02-22T02:28:41.035Z,9.95
2019-02-22T02:29:21.603Z,10.05
2019-02-22T02:30:02.185Z,10.05
2019-02-22T02:30:42.801Z,9.95
2019-02-22T02:31:23.381Z,9.94
2019-02-22T02:32:03.949Z,9.98
2019-02-22T02:32:44.517Z,10.05
2019-02-22T02:33:25.113Z,9.95
2019-02-22T02:34:05.689Z,9.99
2019-02-22T02:34:46.247Z,9.94
2019-02-22T02:35:26.792Z,9.99
2019-02-22T02:36:07.380Z,9.92
2019-02-22T02:36:47.931Z,9.97
2019-02-22T02:37:28.534Z,9.98
2019-02-22T02:38:09.086Z,9.94
2019-02-22T02:38:49.650Z,9.95
2019-02-22T02:39:30.217Z,9.97
2019-02-22T02:40:10.839Z,9.95
2019-02-22T02:40:51.416Z,10.04
2019-02-22T02:41:32.003Z,9.99
2019-02-22T02:42:12.570Z,9.98
2019-02-22T02:42:53.127Z,9.97
2019-02-22T02:43:33.719Z,10.01
2019-02-22T02:44:14.280Z,9.97
2019-02-22T02:44:54.865Z,10.01
2019-02-22T02:45:35.403Z,9.98
2019-02-22T02:46:15.977Z,9.94
2019-02-22T02:46:56.549Z,9.98
2019-02-22T02:47:37.115Z,9.97
2019-02-22T02:48:17.689Z,10.02
2019-02-22T02:48:58.306Z,10.04
2019-02-22T02:49:38.842Z,10.01
2019-02-22T02:50:19.404Z,9.92
2019-02-22T02:51:00.019Z,9.97
2019-02-22T02:51:40.601Z,9.97
2019-02-22T02:52:21.186Z,9.86
2019-02-22T02:53:01.788Z,9.84
2019-02-22T02:53:42.362Z,9.97
2019-02-22T02:54:22.909Z,9.84
2019-02-22T02:55:03.468Z,9.87
2019-02-22T02:55:44.021Z,9.83
2019-02-22T02:56:24.576Z,9.92
2019-02-22T02:57:05.147Z,9.87
2019-02-22T02:57:45.707Z,9.89
2019-02-22T02:58:26.287Z,9.84
2019-02-22T02:59:06.856Z,9.94
2019-02-22T02:59:47.411Z,9.84
2019-02-22T03:00:27.959Z,9.91
2019-02-22T03:01:08.577Z,9.83
2019-02-22T03:01:49.073Z,9.8
2019-02-22T03:02:29.637Z,9.83
2019-02-22T03:03:10.201Z,9.83
2019-02-22T03:03:50.762Z,9.82
2019-02-22T03:04:31.313Z,9.83
2019-02-22T03:05:11.889Z,9.83
2019-02-22T03:05:52.455Z,9.83
2019-02-22T03:06:33.027Z,9.77
2019-02-22T03:07:13.579Z,9.82
2019-02-22T03:07:54.127Z,9.76
2019-02-22T03:08:34.709Z,9.8
2019-02-22T03:09:15.305Z,9.83
2019-02-22T03:09:55.887Z,9.84
2019-02-22T03:10:36.501Z,9.86
2019-02-22T03:11:20.914Z,9.87
2019-02-22T03:11:57.640Z,9.86
2019-02-22T03:12:38.211Z,9.8
2019-02-22T03:13:18.808Z,9.84
2019-02-22T03:13:59.377Z,9.79
2019-02-22T03:14:39.977Z,9.87
2019-02-22T03:15:20.570Z,9.83
2019-02-22T03:16:01.133Z,9.86
2019-02-22T03:16:41.709Z,9.92
2019-02-22T03:17:22.272Z,9.86
2019-02-22T03:18:02.901Z,9.83
2019-02-22T03:18:43.444Z,9.87
2019-02-22T03:19:24.010Z,9.82
2019-02-22T03:20:04.632Z,9.86
2019-02-22T03:20:45.230Z,9.89
2019-02-22T03:21:25.852Z,9.8
2019-02-22T03:22:06.401Z,9.84
2019-02-22T03:22:46.958Z,9.87
2019-02-22T03:23:27.511Z,9.82
2019-02-22T03:24:08.080Z,9.83
2019-02-22T03:24:48.658Z,9.89
2019-02-22T03:25:29.229Z,9.79
2019-02-22T03:26:09.796Z,9.83
2019-02-22T03:26:50.378Z,9.84
2019-02-22T03:27:30.985Z,9.84
2019-02-22T03:30:29.864Z,9.79
2019-02-22T03:31:10.378Z,9.73
2019-02-22T03:31:51.004Z,9.73
2019-02-22T03:32:31.560Z,9.73
2019-02-22T03:33:12.139Z,9.73
2019-02-22T03:33:52.722Z,9.76
2019-02-22T03:34:33.273Z,9.76
2019-02-22T03:35:13.857Z,9.74
2019-02-22T03:35:54.417Z,9.77
2019-02-22T03:36:34.983Z,9.74
2019-02-22T03:37:15.546Z,9.72
2019-02-22T03:37:56.104Z,9.72
2019-02-22T03:38:36.665Z,9.74
2019-02-22T03:39:17.227Z,9.73
2019-02-22T03:39:57.790Z,9.72
2019-02-22T03:40:38.345Z,9.72
2019-02-22T03:41:18.898Z,9.79
2019-02-22T03:41:59.485Z,9.77
2019-02-22T03:42:40.034Z,9.74
2019-02-22T03:43:20.587Z,9.73
2019-02-22T03:44:01.122Z,9.76
2019-02-22T03:44:41.693Z,9.72
2019-02-22T03:45:22.250Z,9.72
2019-02-22T03:46:02.810Z,9.73
2019-02-22T03:46:43.397Z,9.77
2019-02-22T03:47:24.027Z,9.82
2019-02-22T03:48:04.584Z,9.77
2019-02-22T03:48:45.170Z,9.73
2019-02-22T03:49:25.718Z,9.76
2019-02-22T03:50:06.291Z,9.76
2019-02-22T03:50:46.863Z,9.66
2019-02-22T03:51:27.421Z,9.69
2019-02-22T03:52:07.978Z,9.72
2019-02-22T03:52:48.551Z,9.64
2019-02-22T03:53:29.176Z,9.76
2019-02-22T03:54:09.806Z,9.68
2019-02-22T03:54:50.419Z,9.72
2019-02-22T03:55:30.986Z,9.68
2019-02-22T03:56:11.541Z,9.69
2019-02-22T03:56:52.118Z,9.69
2019-02-22T03:57:32.663Z,9.62
2019-02-22T03:58:13.240Z,9.65
2019-02-22T03:58:53.835Z,9.68
2019-02-22T03:59:34.405Z,9.66
2019-02-22T04:00:14.989Z,9.66
2019-02-22T04:00:55.595Z,9.64
2019-02-22T04:01:36.195Z,9.66
2019-02-22T04:02:16.782Z,9.65
2019-02-22T04:02:57.360Z,9.68
2019-02-22T04:03:37.976Z,9.65
2019-02-22T04:04:18.530Z,9.59
2019-02-22T04:04:59.182Z,9.62
2019-02-22T04:05:39.732Z,9.58
2019-02-22T04:06:20.317Z,9.5
2019-02-22T04:07:00.877Z,9.51
2019-02-22T04:07:41.437Z,9.55
2019-02-22T04:08:22.009Z,9.44
2019-02-22T04:09:02.657Z,9.5
2019-02-22T04:09:43.146Z,9.48
2019-02-22T04:10:23.732Z,9.44
2019-02-22T04:11:04.319Z,9.41
2019-02-22T04:11:46.162Z,9.37
2019-02-22T04:12:25.491Z,9.34
2019-02-22T04:13:06.037Z,9.26
2019-02-22T04:13:46.611Z,9.29
2019-02-22T04:14:27.173Z,9.22
2019-02-22T04:15:07.757Z,9.21
2019-02-22T04:15:48.327Z,9.26
2019-02-22T04:16:28.893Z,9.22
2019-02-22T04:17:11.477Z,9.19
2019-02-22T04:17:50.101Z,9.18
2019-02-22T04:18:30.673Z,9.06
2019-02-22T04:19:11.306Z,9.08
2019-02-22T04:19:51.882Z,9.13
2019-02-22T04:20:32.500Z,9.11
2019-02-22T04:21:13.054Z,9.1
2019-02-22T04:21:53.732Z,9.11
2019-02-22T04:22:34.370Z,9.02
2019-02-22T04:23:14.939Z,9.03
2019-02-22T04:23:55.609Z,9.08
2019-02-22T04:24:36.203Z,9.1
2019-02-22T04:25:16.875Z,8.99
2019-02-22T04:25:57.443Z,8.95
2019-02-22T04:26:38.035Z,8.95
2019-02-22T04:27:18.598Z,8.92
2019-02-22T04:27:59.172Z,8.95
2019-02-22T04:28:39.737Z,8.95
2019-02-22T04:29:20.310Z,8.95
2019-02-22T04:30:00.905Z,8.99
2019-02-22T04:30:41.488Z,8.94
2019-02-22T04:31:22.058Z,8.95
2019-02-22T04:32:02.658Z,8.91
2019-02-22T04:32:43.213Z,8.92
2019-02-22T04:33:23.789Z,8.94
2019-02-22T04:34:04.337Z,9
2019-02-22T04:34:44.900Z,8.95
2019-02-22T04:35:25.453Z,8.97
2019-02-22T04:36:06.017Z,8.91
2019-02-22T04:36:46.601Z,8.95
2019-02-22T04:37:27.207Z,8.99
2019-02-22T04:38:07.764Z,8.97
2019-02-22T04:38:48.318Z,8.97
2019-02-22T04:39:28.903Z,8.97
2019-02-22T04:40:09.509Z,8.89
2019-02-22T04:40:50.024Z,8.95
2019-02-22T04:41:30.573Z,8.92
2019-02-22T04:42:11.146Z,8.78
2019-02-22T04:42:51.703Z,8.74
2019-02-22T04:43:32.250Z,8.69
2019-02-22T04:44:12.822Z,8.6
2019-02-22T04:44:53.385Z,8.49
2019-02-22T04:45:33.930Z,8.38
2019-02-22T04:46:14.498Z,8.3
2019-02-22T04:46:55.067Z,8.34
2019-02-22T04:47:35.660Z,8.3
2019-02-22T04:48:16.228Z,8.31
2019-02-22T04:48:56.780Z,8.23
2019-02-22T04:49:37.339Z,8.15
2019-02-22T04:50:17.917Z,8.13
2019-02-22T04:50:58.503Z,8.08
2019-02-22T04:51:39.044Z,7.95
2019-02-22T04:52:19.619Z,7.85
2019-02-22T04:53:00.186Z,7.79
2019-02-22T04:53:40.738Z,7.75
2019-02-22T04:54:21.304Z,7.75
2019-02-22T04:55:01.870Z,7.66
2019-02-22T04:55:42.458Z,7.61
2019-02-22T04:56:23.022Z,7.61
2019-02-22T04:57:03.575Z,7.58
2019-02-22T04:57:44.146Z,7.6
2019-02-22T04:58:24.727Z,7.66
2019-02-22T04:59:05.309Z,7.51
2019-02-22T04:59:45.976Z,7.51
2019-02-22T05:00:26.538Z,7.39
2019-02-22T05:01:07.083Z,7.43
2019-02-22T05:01:47.626Z,7.43
2019-02-22T05:02:28.218Z,7.43
2019-02-22T05:03:08.768Z,7.38
2019-02-22T05:03:49.354Z,7.28
2019-02-22T05:04:29.910Z,7.39
2019-02-22T05:05:10.523Z,7.23
2019-02-22T05:05:51.078Z,7.28
2019-02-22T05:06:31.657Z,7.21
2019-02-22T05:07:12.221Z,7.24
2019-02-22T05:07:52.787Z,7.21
2019-02-22T05:08:33.364Z,7.17
2019-02-22T05:09:13.909Z,7.1
2019-02-22T05:09:54.471Z,7.03
2019-02-22T05:10:35.045Z,6.95
2019-02-22T05:11:15.593Z,6.92
2019-02-22T05:11:56.135Z,6.82
2019-02-22T05:12:36.711Z,6.85
2019-02-22T05:13:17.282Z,6.82
2019-02-22T05:13:57.845Z,6.85
2019-02-22T05:14:38.428Z,6.81
2019-02-22T05:15:18.999Z,6.78
2019-02-22T05:15:59.567Z,6.74
2019-02-22T05:16:40.140Z,6.77
2019-02-22T05:17:20.688Z,6.72
2019-02-22T05:18:01.271Z,6.72
2019-02-22T05:18:41.821Z,6.64
2019-02-22T05:19:22.411Z,6.72
2019-02-22T05:20:02.987Z,6.62
2019-02-22T05:20:43.570Z,6.49
2019-02-22T05:21:24.118Z,6.52
2019-02-22T05:22:04.751Z,6.54
2019-02-22T05:22:45.245Z,6.45
2019-02-22T05:23:25.811Z,6.45
2019-02-22T05:24:06.394Z,6.39
2019-02-22T05:24:46.997Z,6.44
2019-02-22T05:25:27.551Z,6.36
2019-02-22T05:26:08.125Z,6.49
2019-02-22T05:26:48.696Z,6.49
2019-02-22T05:27:29.266Z,6.44
2019-02-22T05:28:09.842Z,6.48
2019-02-22T05:28:50.406Z,6.44
2019-02-22T05:29:30.992Z,6.45
2019-02-22T05:30:11.551Z,6.36
2019-02-22T05:30:52.128Z,6.39
2019-02-22T05:31:32.734Z,6.44
2019-02-22T05:32:13.329Z,6.45
2019-02-22T05:32:53.878Z,6.45
2019-02-22T05:33:34.445Z,6.44
2019-02-22T05:34:15.004Z,6.36
2019-02-22T05:34:55.589Z,6.41
2019-02-22T05:35:36.133Z,6.27
2019-02-22T05:36:16.771Z,6.3
2019-02-22T05:36:57.351Z,6.28
2019-02-22T05:37:37.904Z,6.27
2019-02-22T05:38:18.469Z,6.31
2019-02-22T05:38:59.020Z,6.22
2019-02-22T05:39:39.583Z,6.24
2019-02-22T05:40:20.141Z,6.24
2019-02-22T05:41:00.715Z,6.17
2019-02-22T05:41:41.265Z,6.24
2019-02-22T05:42:23.045Z,6.24
2019-02-22T05:43:02.408Z,6.26
2019-02-22T05:43:42.940Z,6.28
2019-02-22T05:44:23.535Z,6.22
2019-02-22T05:45:04.101Z,6.17
2019-02-22T05:45:44.652Z,6.09
2019-02-22T05:46:25.211Z,6.14
2019-02-22T05:47:05.754Z,6.05
2019-02-22T05:47:46.322Z,6.04
2019-02-22T05:48:26.898Z,5.99
2019-02-22T05:49:07.498Z,6.08
2019-02-22T05:49:48.044Z,6.12
2019-02-22T05:50:28.643Z,6.07
2019-02-22T05:51:09.218Z,6.08
2019-02-22T05:51:49.796Z,6.09
2019-02-22T05:52:30.360Z,6.07
2019-02-22T05:53:10.937Z,6.09
2019-02-22T05:53:51.474Z,6.12
2019-02-22T05:54:32.063Z,5.97
2019-02-22T05:55:12.644Z,6.04
2019-02-22T05:55:53.222Z,6.01
2019-02-22T05:56:33.801Z,6.14
2019-02-22T05:57:14.530Z,6.04
2019-02-22T05:57:55.071Z,6.04
2019-02-22T05:58:35.706Z,6.07
2019-02-22T05:59:16.330Z,6.01
2019-02-22T05:59:56.914Z,6.05
2019-02-22T06:00:37.480Z,6.05
2019-02-22T06:01:18.072Z,6.05
2019-02-22T06:01:58.779Z,6.07
2019-02-22T06:02:39.379Z,6.05
2019-02-22T06:03:19.982Z,6.08
2019-02-22T06:04:00.570Z,6.05
2019-02-22T06:04:41.192Z,6.07
2019-02-22T06:05:21.747Z,6.04
2019-02-22T06:06:02.301Z,6.04
2019-02-22T06:06:42.875Z,5.97
2019-02-22T06:07:23.447Z,5.99
2019-02-22T06:08:04.023Z,6.01
2019-02-22T06:08:44.573Z,5.97
2019-02-22T06:09:25.129Z,5.9
2019-02-22T06:10:05.690Z,5.87
2019-02-22T06:10:46.251Z,5.91
2019-02-22T06:11:26.840Z,5.89
2019-02-22T06:12:07.506Z,5.86
2019-02-22T06:12:48.075Z,5.89
2019-02-22T06:13:28.655Z,5.76
2019-02-22T06:14:09.226Z,5.75
2019-02-22T06:14:49.837Z,5.86
2019-02-22T06:15:31.445Z,5.86
2019-02-22T06:16:10.942Z,5.76
2019-02-22T06:16:51.507Z,5.9
2019-02-22T06:17:32.080Z,5.84
2019-02-22T06:18:12.758Z,5.86
2019-02-22T06:18:53.353Z,5.83
2019-02-22T06:19:33.916Z,5.72
2019-02-22T06:20:14.516Z,5.9
2019-02-22T06:20:55.100Z,5.9
2019-02-22T06:21:35.640Z,5.86
2019-02-22T06:22:28.627Z,5.87
2019-02-22T06:22:56.813Z,5.76
2019-02-22T06:23:37.385Z,5.87
2019-02-22T06:24:17.957Z,5.93
2019-02-22T06:24:58.522Z,5.87
2019-02-22T06:25:39.098Z,5.93
2019-02-22T06:26:19.659Z,5.86
2019-02-22T06:27:00.207Z,5.87
2019-02-22T06:27:40.775Z,5.89
2019-02-22T06:28:21.346Z,5.93
2019-02-22T06:29:01.992Z,5.86
2019-02-22T06:29:42.553Z,5.86
2019-02-22T06:30:23.119Z,5.83
2019-02-22T06:31:03.724Z,5.76
2019-02-22T06:31:44.283Z,5.8
2019-02-22T06:32:24.845Z,5.73
2019-02-22T06:33:05.411Z,5.76
2019-02-22T06:33:45.972Z,5.72
2019-02-22T06:34:26.587Z,5.72
2019-02-22T06:35:08.898Z,5.75
2019-02-22T06:35:47.917Z,5.75
2019-02-22T06:36:28.560Z,5.76
2019-02-22T06:37:09.122Z,5.79
2019-02-22T06:37:49.748Z,5.75
2019-02-22T06:38:30.298Z,5.83
2019-02-22T06:39:10.892Z,5.75
2019-02-22T06:39:51.513Z,5.75
2019-02-22T06:40:33.115Z,5.9
2019-02-22T06:41:13.717Z,5.75
2019-02-22T06:41:54.421Z,5.75
2019-02-22T06:42:44.891Z,5.76
2019-02-22T06:43:15.560Z,5.79
2019-02-22T06:43:56.247Z,5.82
2019-02-22T06:44:37.090Z,5.86
2019-02-22T06:45:17.778Z,5.8
2019-02-22T06:45:58.359Z,5.79
2019-02-22T06:46:39.158Z,5.75
2019-02-22T06:47:21.933Z,5.79
2019-02-22T06:48:00.332Z,5.72
2019-02-22T06:48:40.935Z,5.66
2019-02-22T06:49:21.499Z,5.66
2019-02-22T06:50:02.062Z,5.71
2019-02-22T06:50:42.656Z,5.69
2019-02-22T06:51:23.287Z,5.64
2019-02-22T06:52:03.886Z,5.64
2019-02-22T06:52:44.455Z,5.64
2019-02-22T06:53:24.998Z,5.57
2019-02-22T06:54:05.626Z,5.66
2019-02-22T06:54:46.172Z,5.62
2019-02-22T06:55:26.730Z,5.54
2019-02-22T06:56:07.289Z,5.53
2019-02-22T06:56:47.936Z,5.56
2019-02-22T06:57:28.519Z,5.48
2019-02-22T06:58:11.683Z,5.53
2019-02-22T06:58:49.675Z,5.46
2019-02-22T06:59:30.274Z,5.47
2019-02-22T07:00:10.863Z,5.39
2019-02-22T07:00:51.441Z,5.36
2019-02-22T07:01:32.000Z,5.43
2019-02-22T07:02:12.564Z,5.43
2019-02-22T07:02:53.354Z,5.44
2019-02-22T07:03:34.760Z,5.41
2019-02-22T07:04:15.345Z,5.36
2019-02-22T07:04:55.904Z,5.33
2019-02-22T07:05:36.493Z,5.36
2019-02-22T07:06:17.089Z,5.3
2019-02-22T07:06:57.696Z,5.3
2019-02-22T07:07:38.274Z,5.23
2019-02-22T07:08:18.873Z,5.3
2019-02-22T07:08:59.447Z,5.28
2019-02-22T07:09:40.044Z,5.28
2019-02-22T07:10:20.639Z,5.32
2019-02-22T07:11:01.218Z,5.3
2019-02-22T07:11:41.798Z,5.3
2019-02-22T07:12:22.369Z,5.28
2019-02-22T07:13:02.974Z,5.23
2019-02-22T07:13:43.557Z,5.26
2019-02-22T07:14:24.417Z,5.25
2019-02-22T07:15:05.796Z,5.23
2019-02-22T07:15:46.348Z,5.17
2019-02-22T07:16:26.897Z,5.21
2019-02-22T07:17:07.455Z,5.23
2019-02-22T07:17:48.151Z,5.28
2019-02-22T07:18:28.738Z,5.21
2019-02-22T07:19:09.413Z,5.15
2019-02-22T07:19:50.074Z,5.17
2019-02-22T07:20:30.831Z,5.04
2019-02-22T07:21:11.547Z,5.11
2019-02-22T07:21:53.157Z,5.08
2019-02-22T07:22:32.828Z,5.02
2019-02-22T07:23:13.672Z,5.07
2019-02-22T07:23:54.244Z,4.97
2019-02-22T07:24:34.814Z,4.93
2019-02-22T07:25:15.396Z,4.96
2019-02-22T07:25:56.115Z,4.92
2019-02-22T07:26:36.671Z,4.87
2019-02-22T07:27:17.273Z,4.92
2019-02-22T07:27:57.847Z,4.89
2019-02-22T07:28:39.220Z,4.87
2019-02-22T07:29:23.338Z,4.92
2019-02-22T07:30:04.220Z,4.92
2019-02-22T07:30:45.724Z,4.86
2019-02-22T07:31:27.324Z,4.78
2019-02-22T07:32:08.457Z,4.75
2019-02-22T07:32:49.071Z,4.75
2019-02-22T07:33:29.797Z,4.73
2019-02-22T07:34:10.217Z,4.74
2019-02-22T07:34:50.803Z,4.7
2019-02-22T07:35:31.365Z,4.73
2019-02-22T07:36:11.920Z,4.73
2019-02-22T07:36:52.523Z,4.78
2019-02-22T07:37:33.100Z,4.7
2019-02-22T07:38:13.707Z,4.8
2019-02-22T07:38:54.277Z,4.75
2019-02-22T07:39:34.852Z,4.77
2019-02-22T07:40:15.623Z,4.77
2019-02-22T07:40:56.198Z,4.78
2019-02-22T07:41:36.940Z,4.73
2019-02-22T07:42:17.505Z,4.73
2019-02-22T07:43:07.690Z,4.71
2019-02-22T07:43:38.788Z,4.67
2019-02-22T07:44:19.233Z,4.6
2019-02-22T07:44:59.802Z,4.66
2019-02-22T07:45:40.359Z,4.75
2019-02-22T07:46:20.935Z,4.66
2019-02-22T07:47:02.461Z,4.66
2019-02-22T07:47:42.299Z,4.68
2019-02-22T07:48:23.033Z,4.5
2019-02-22T07:49:03.628Z,4.56
2019-02-22T07:49:44.219Z,4.53
2019-02-22T07:50:25.027Z,4.49
2019-02-22T07:51:05.667Z,4.56
2019-02-22T07:51:46.250Z,4.5
2019-02-22T07:52:26.868Z,4.44
2019-02-22T07:53:07.489Z,4.42
2019-02-22T07:53:48.525Z,4.48
2019-02-22T07:54:29.232Z,4.44
2019-02-22T07:55:09.784Z,4.48
2019-02-22T07:55:50.349Z,4.42
2019-02-22T07:56:30.909Z,4.35
2019-02-22T07:57:11.484Z,4.3
2019-02-22T07:57:52.048Z,4.23
2019-02-22T07:58:32.614Z,4.3
2019-02-22T07:59:13.197Z,4.22
2019-02-22T07:59:53.755Z,4.26
2019-02-22T08:00:34.328Z,4.17
2019-02-22T08:01:14.975Z,4.17
2019-02-22T08:01:55.712Z,4.06
2019-02-22T08:02:36.297Z,4.08
2019-02-22T08:03:16.869Z,4.05
2019-02-22T08:03:57.439Z,4.1
2019-02-22T08:04:39.064Z,4.1
2019-02-22T08:05:19.704Z,4.13
2019-02-22T08:06:00.319Z,4.1
2019-02-22T08:06:42.474Z,4.16
2019-02-22T08:07:21.447Z,4.1
2019-02-22T08:08:02.008Z,4.13
2019-02-22T08:08:42.630Z,4.05
2019-02-22T08:09:23.202Z,4.13
2019-02-22T08:10:03.828Z,4.12
2019-02-22T08:10:44.400Z,4.05
2019-02-22T08:11:24.987Z,4.14
2019-02-22T08:12:05.566Z,4.1
2019-02-22T08:12:46.144Z,4.16
2019-02-22T08:13:26.814Z,4.1
2019-02-22T08:14:08.062Z,4.02
2019-02-22T08:14:48.485Z,4.1
2019-02-22T08:15:32.038Z,4.06
2019-02-22T08:16:13.064Z,4.1
2019-02-22T08:16:53.621Z,4.06
2019-02-22T08:17:34.240Z,4.16
2019-02-22T08:18:14.808Z,4.02
2019-02-22T08:19:01.307Z,4.01
2019-02-22T08:19:36.012Z,4.05
2019-02-22T08:20:16.584Z,3.96
2019-02-22T08:20:57.158Z,3.99
2019-02-22T08:21:37.714Z,3.84
2019-02-22T08:22:20.619Z,3.86
2019-02-22T08:22:58.897Z,3.92
2019-02-22T08:23:39.735Z,3.84
2019-02-22T08:24:20.544Z,3.83
2019-02-22T08:25:01.136Z,3.91
2019-02-22T08:25:41.728Z,3.87
2019-02-22T08:26:22.348Z,3.86
2019-02-22T08:27:02.919Z,3.88
2019-02-22T08:27:52.925Z,3.96
2019-02-22T08:28:24.092Z,3.86
2019-02-22T08:29:04.640Z,3.88
2019-02-22T08:29:45.256Z,3.84
2019-02-22T08:30:25.804Z,3.92
2019-02-22T08:31:06.395Z,3.92
2019-02-22T08:31:46.949Z,3.83
2019-02-22T08:32:27.535Z,3.8
2019-02-22T08:33:08.121Z,3.88
2019-02-22T08:33:48.673Z,3.88
2019-02-22T08:34:29.242Z,4.1
2019-02-22T08:35:09.790Z,4.22
2019-02-22T08:35:50.413Z,4.52
2019-02-22T08:36:31.032Z,4.8
2019-02-22T08:37:11.612Z,5.08
2019-02-22T08:37:52.160Z,5.21
2019-02-22T08:38:32.706Z,5.43
2019-02-22T08:39:13.286Z,5.54
2019-02-22T08:39:58.456Z,5.61
2019-02-22T08:40:34.485Z,5.71
2019-02-22T08:41:15.039Z,5.84
2019-02-22T08:41:55.609Z,6.02
2019-02-22T08:42:36.182Z,6.09
2019-02-22T08:43:16.782Z,6.3
2019-02-22T08:43:57.429Z,6.46
2019-02-22T08:44:37.969Z,6.64
2019-02-22T08:45:18.565Z,6.74
2019-02-22T08:45:59.131Z,6.79
2019-02-22T08:46:39.681Z,6.99
2019-02-22T08:47:20.240Z,7.06
2019-02-22T08:48:00.808Z,7.21
2019-02-22T08:48:41.352Z,7.31
2019-02-22T08:49:21.911Z,7.42
2019-02-22T08:50:02.475Z,7.56
2019-02-22T08:50:43.035Z,7.47
2019-02-22T08:51:23.607Z,7.38
2019-02-22T08:52:04.203Z,7.29
2019-02-22T08:52:44.748Z,7.25
2019-02-22T08:53:25.298Z,7.21
2019-02-22T08:54:05.866Z,7.33
2019-02-22T08:54:47.399Z,7.18
2019-02-22T08:55:27.005Z,7.18
2019-02-22T08:56:07.602Z,7.06
2019-02-22T08:56:48.178Z,6.97
2019-02-22T08:57:28.726Z,7
2019-02-22T08:58:09.283Z,6.99
2019-02-22T08:58:49.870Z,7.02
2019-02-22T08:59:30.584Z,7.07